Time;durP1;ratioP1;P1;durP2;ratioP2;P2;SDS_P1;SDS_P2;PMS_P1;PMS_P2;Temp;Humidity;BMP_temperature;BMP_pressure;BME280_temperature;BME280_humidity;BME280_pressure;Samples;Min_cycle;Max_cycle;Signal;HPM_P1;HPM_P2
2023/04/14 00:02:02;;;;;;;3.63;0.77;;;18.30;1.00;;;;;;5035018;28;20044;-34
2023/04/14 00:04:28;;;;;;;6.65;1.52;;;18.30;1.00;;;;;;5034178;28;20120;-38
2023/04/14 00:06:58;;;;;;;7.50;1.35;;;18.30;1.00;;;;;;5034994;28;20077;-32
2023/04/14 00:09:25;;;;;;;6.07;1.25;;;18.30;1.00;;;;;;5035178;28;20045;-34
2023/04/14 00:11:52;;;;;;;4.13;1.23;;;18.20;1.00;;;;;;5034838;28;20077;-37
2023/04/14 00:14:19;;;;;;;9.73;1.33;;;18.20;1.00;;;;;;5034085;28;20083;-38
2023/04/14 00:16:46;;;;;;;6.57;1.30;;;18.20;1.00;;;;;;5034759;28;20118;-38
2023/04/14 00:19:12;;;;;;;4.32;1.63;;;18.20;1.00;;;;;;5034823;28;20046;-37
2023/04/14 00:21:40;;;;;;;3.13;1.25;;;18.20;1.00;;;;;;5034501;28;20041;-32
2023/04/14 00:24:06;;;;;;;4.45;0.80;;;18.20;1.00;;;;;;5033918;28;20555;-33
2023/04/14 00:26:33;;;;;;;4.40;1.25;;;18.20;1.00;;;;;;5033317;28;20042;-34
2023/04/14 00:29:00;;;;;;;3.90;1.00;;;18.20;1.00;;;;;;5034585;28;20069;-35
2023/04/14 00:31:27;;;;;;;8.10;1.80;;;18.20;1.00;;;;;;5034519;28;20041;-36
2023/04/14 00:33:54;;;;;;;5.53;1.67;;;18.20;1.00;;;;;;5033734;28;20041;-35
2023/04/14 00:36:22;;;;;;;6.25;1.23;;;18.20;1.00;;;;;;5034249;28;20563;-34
2023/04/14 00:38:48;;;;;;;9.98;2.30;;;18.10;1.00;;;;;;5034383;28;20045;-34
2023/04/14 00:41:15;;;;;;;5.63;1.73;;;18.10;1.00;;;;;;5034326;28;20065;-36
2023/04/14 00:43:42;;;;;;;1.95;0.98;;;18.10;1.00;;;;;;5015772;28;20437;-36
2023/04/14 00:46:09;;;;;;;7.03;1.23;;;18.10;1.00;;;;;;5016497;28;20045;-35
2023/04/14 00:48:36;;;;;;;4.00;1.30;;;18.10;1.00;;;;;;5016559;28;20069;-35
2023/04/14 00:51:03;;;;;;;6.28;1.27;;;18.10;1.00;;;;;;5034026;28;20037;-35
2023/04/14 00:53:31;;;;;;;4.10;1.48;;;18.10;1.00;;;;;;5015678;28;20497;-32
2023/04/14 00:55:59;;;;;;;4.18;0.98;;;18.10;1.00;;;;;;5034083;28;20037;-34
2023/04/14 00:58:26;;;;;;;4.45;0.82;;;18.00;1.00;;;;;;5034049;28;20041;-36
2023/04/14 01:00:54;;;;;;;7.47;1.00;;;18.00;1.00;;;;;;5015818;28;20045;-37
2023/04/14 01:03:23;;;;;;;7.55;1.52;;;18.00;1.00;;;;;;5033100;28;20128;-39
2023/04/14 01:05:50;;;;;;;6.68;1.15;;;18.00;1.00;;;;;;5016149;28;20493;-37
2023/04/14 01:08:18;;;;;;;4.43;0.88;;;18.00;1.00;;;;;;5033960;28;20107;-40
2023/04/14 01:10:54;;;;;;;3.85;0.93;;;18.00;1.00;;;;;;5015899;28;20500;-36
2023/04/14 01:13:37;;;;;;;10.27;1.42;;;18.00;1.00;;;;;;5015152;28;20057;-33
2023/04/14 01:16:27;;;;;;;3.73;0.97;;;18.00;1.00;;;;;;5016168;28;20055;-35
2023/04/14 01:18:59;;;;;;;7.10;1.48;;;18.00;1.00;;;;;;5033712;28;20551;-35
2023/04/14 01:21:34;;;;;;;4.85;0.80;;;18.00;1.00;;;;;;5033749;28;20132;-40
2023/04/14 01:24:15;;;;;;;8.45;0.90;;;17.90;1.00;;;;;;5031526;28;20045;-31
2023/04/14 01:26:44;;;;;;;3.90;0.80;;;17.90;1.00;;;;;;5032228;28;20428;-33
2023/04/14 01:29:32;;;;;;;5.13;1.20;;;17.90;1.00;;;;;;5015751;28;20549;-33
2023/04/14 01:32:04;;;;;;;2.20;0.65;;;17.90;1.00;;;;;;5015515;28;20079;-39
2023/04/14 01:34:55;;;;;;;2.63;1.00;;;17.90;1.00;;;;;;5015005;28;20519;-34
2023/04/14 01:37:33;;;;;;;4.10;0.70;;;17.90;1.00;;;;;;5014976;28;20072;-32
2023/04/14 01:40:06;;;;;;;5.50;1.10;;;17.90;1.00;;;;;;5033331;28;20092;-38
2023/04/14 01:42:36;;;;;;;6.13;1.00;;;17.90;1.00;;;;;;5031639;28;20041;-34
2023/04/14 01:45:14;;;;;;;4.43;1.02;;;17.90;1.00;;;;;;5015338;28;20072;-37
2023/04/14 01:47:42;;;;;;;6.35;1.42;;;17.80;1.00;;;;;;5015357;28;20054;-39
2023/04/14 01:50:11;;;;;;;9.98;1.60;;;17.80;1.00;;;;;;5015313;28;20505;-32
2023/04/14 01:52:41;;;;;;;3.33;1.27;;;17.80;1.00;;;;;;5032179;28;20053;-37
2023/04/14 01:55:09;;;;;;;5.97;1.30;;;17.80;1.00;;;;;;5015098;28;20053;-32
2023/04/14 01:57:40;;;;;;;3.42;1.15;;;17.80;1.00;;;;;;5015170;28;20045;-35
2023/04/14 02:00:09;;;;;;;6.22;1.55;;;17.80;1.00;;;;;;5015137;28;20069;-32
2023/04/14 02:02:45;;;;;;;2.78;1.15;;;17.80;1.00;;;;;;5032411;28;20057;-35
2023/04/14 02:05:15;;;;;;;3.17;1.05;;;17.80;1.00;;;;;;5032786;28;20463;-33
2023/04/14 02:07:46;;;;;;;4.43;1.10;;;17.70;1.00;;;;;;5032738;28;20049;-36
2023/04/14 02:10:16;;;;;;;4.25;0.98;;;17.80;1.00;;;;;;5014996;28;20113;-33
2023/04/14 02:12:45;;;;;;;5.55;1.13;;;17.80;1.00;;;;;;5014126;28;20073;-33
2023/04/14 02:15:16;;;;;;;2.03;0.88;;;17.70;1.00;;;;;;5031350;28;20045;-34
2023/04/14 02:17:47;;;;;;;7.30;1.23;;;17.70;1.00;;;;;;5014771;28;20386;-38
2023/04/14 02:20:14;;;;;;;3.65;0.80;;;17.70;1.00;;;;;;5032669;28;20052;-34
2023/04/14 02:22:42;;;;;;;3.60;0.93;;;17.70;1.00;;;;;;5031477;28;20042;-33
2023/04/14 02:25:09;;;;;;;4.38;1.55;;;17.70;1.00;;;;;;5014727;28;20532;-33
2023/04/14 02:27:42;;;;;;;7.47;1.23;;;17.70;1.00;;;;;;5014659;28;20056;-34
2023/04/14 02:30:23;;;;;;;3.17;0.98;;;17.70;1.00;;;;;;5032498;28;20041;-36
2023/04/14 02:33:00;;;;;;;8.02;1.73;;;17.70;1.00;;;;;;5031328;28;20041;-33
2023/04/14 02:35:30;;;;;;;2.60;1.02;;;17.60;1.00;;;;;;5014522;28;20517;-32
2023/04/14 02:38:09;;;;;;;5.57;1.40;;;17.60;1.00;;;;;;5014587;28;20100;-40
2023/04/14 02:40:40;;;;;;;6.60;0.95;;;17.60;1.00;;;;;;5032215;28;20117;-34
2023/04/14 02:43:15;;;;;;;4.57;0.75;;;17.60;1.00;;;;;;5013624;28;20041;-32
2023/04/14 02:45:47;;;;;;;2.15;1.08;;;17.60;1.00;;;;;;5032210;28;20041;-32
2023/04/14 02:48:16;;;;;;;4.05;1.80;;;17.60;1.00;;;;;;5032223;28;20451;-35
2023/04/14 02:50:51;;;;;;;5.00;1.17;;;17.60;1.00;;;;;;5013610;28;20049;-34
2023/04/14 02:53:24;;;;;;;3.67;1.05;;;17.60;1.00;;;;;;5013620;28;20544;-37
2023/04/14 02:56:01;;;;;;;5.40;1.23;;;17.50;1.00;;;;;;5014211;28;20055;-33
2023/04/14 02:58:33;;;;;;;3.83;0.82;;;17.50;1.00;;;;;;5014330;28;20060;-32
2023/04/14 03:01:00;;;;;;;5.25;1.23;;;17.60;1.00;;;;;;5014174;28;20038;-37
2023/04/14 03:03:28;;;;;;;5.40;1.13;;;17.50;1.00;;;;;;5013532;28;20115;-33
2023/04/14 03:05:57;;;;;;;5.75;1.45;;;17.50;1.00;;;;;;5014116;28;20417;-36
2023/04/14 03:08:26;;;;;;;4.70;1.13;;;17.50;1.00;;;;;;5014053;28;20487;-33
2023/04/14 03:10:53;;;;;;;6.05;1.38;;;17.50;1.00;;;;;;5014075;28;20576;-34
2023/04/14 03:13:26;;;;;;;2.33;0.63;;;17.50;1.00;;;;;;5013242;28;20076;-38
2023/04/14 03:15:54;;;;;;;5.18;1.30;;;17.50;1.00;;;;;;5014046;28;20119;-36
2023/04/14 03:18:21;;;;;;;8.82;1.88;;;17.50;1.00;;;;;;5031677;28;20129;-38
2023/04/14 03:20:52;;;;;;;5.72;1.45;;;17.40;1.00;;;;;;5013925;28;20065;-35
2023/04/14 03:23:20;;;;;;;2.60;0.85;;;17.40;1.00;;;;;;5013236;28;20041;-35
2023/04/14 03:25:54;;;;;;;3.47;0.70;;;17.40;1.00;;;;;;5014005;28;20496;-36
2023/04/14 03:28:29;;;;;;;3.92;1.10;;;17.40;1.00;;;;;;5014092;28;20053;-35
2023/04/14 03:31:00;;;;;;;3.03;1.17;;;17.40;1.00;;;;;;5013966;28;20471;-34
2023/04/14 03:33:33;;;;;;;2.95;1.10;;;17.40;1.00;;;;;;5013083;28;20053;-33
2023/04/14 03:36:02;;;;;;;6.90;1.52;;;17.40;1.00;;;;;;5013835;28;20148;-35
2023/04/14 03:38:32;;;;;;;2.92;1.20;;;17.40;1.00;;;;;;5013814;28;20038;-32
2023/04/14 03:41:04;;;;;;;6.25;1.05;;;17.40;1.00;;;;;;5014074;28;20155;-35
2023/04/14 03:43:33;;;;;;;5.90;1.25;;;17.40;1.00;;;;;;5012985;28;20104;-38
2023/04/14 03:46:05;;;;;;;4.15;1.70;;;17.30;1.00;;;;;;5013874;28;20532;-36
2023/04/14 03:48:35;;;;;;;3.50;1.33;;;17.30;1.00;;;;;;5013707;28;20428;-37
2023/04/14 03:51:07;;;;;;;2.95;0.75;;;17.30;1.00;;;;;;5013748;28;20135;-35
2023/04/14 03:53:36;;;;;;;4.63;1.33;;;17.30;1.00;;;;;;5030680;28;20103;-34
2023/04/14 03:56:05;;;;;;;4.88;1.30;;;17.30;1.00;;;;;;5013702;28;20057;-36
2023/04/14 03:58:33;;;;;;;4.10;1.52;;;17.30;1.00;;;;;;5013607;28;20429;-38
2023/04/14 04:01:01;;;;;;;2.90;1.02;;;17.30;1.00;;;;;;5032482;28;20045;-41
2023/04/14 04:03:29;;;;;;;5.28;1.30;;;17.30;1.00;;;;;;5016547;28;20140;-35
2023/04/14 04:05:57;;;;;;;5.82;1.42;;;17.30;1.00;;;;;;5017314;28;20046;-39
2023/04/14 04:08:26;;;;;;;4.22;1.63;;;17.30;1.00;;;;;;5017258;28;20052;-34
2023/04/14 04:10:55;;;;;;;6.47;1.48;;;17.30;1.00;;;;;;5034897;28;20124;-33
2023/04/14 04:13:23;;;;;;;4.38;1.17;;;17.30;1.00;;;;;;5016353;28;20145;-35
2023/04/14 04:15:51;;;;;;;3.13;0.80;;;17.20;1.00;;;;;;5017089;28;20509;-33
2023/04/14 04:18:21;;;;;;;5.35;0.85;;;17.20;1.00;;;;;;5017034;28;20100;-36
2023/04/14 04:20:49;;;;;;;6.75;1.58;;;17.20;1.00;;;;;;5016965;28;20045;-34
2023/04/14 04:23:19;;;;;;;4.18;0.95;;;17.20;1.00;;;;;;5033768;28;20466;-34
2023/04/14 04:25:46;;;;;;;6.00;1.38;;;17.20;1.00;;;;;;5016935;28;20048;-37
2023/04/14 04:28:23;;;;;;;3.15;1.30;;;17.10;1.00;;;;;;5016899;28;20468;-33
2023/04/14 04:30:53;;;;;;;5.00;1.17;;;17.20;1.00;;;;;;5034687;28;20401;-35
2023/04/14 04:33:21;;;;;;;5.38;1.50;;;17.10;1.00;;;;;;5032948;22;20040;-35
2023/04/14 04:35:50;;;;;;;1.80;0.70;;;17.20;1.00;;;;;;5036295;28;20049;-35
2023/04/14 04:38:17;;;;;;;3.95;1.35;;;17.20;1.00;;;;;;5036383;28;20412;-36
2023/04/14 04:40:45;;;;;;;4.45;1.17;;;17.10;1.00;;;;;;5036354;28;20041;-35
2023/04/14 04:43:18;;;;;;;5.88;1.25;;;17.10;1.00;;;;;;5026955;28;20073;-35
2023/04/14 04:45:57;;;;;;;3.65;1.10;;;17.10;1.00;;;;;;5021519;28;20454;-35
2023/04/14 04:48:26;;;;;;;7.05;1.40;;;17.10;1.00;;;;;;5017800;28;20103;-35
2023/04/14 04:50:53;;;;;;;3.25;1.20;;;17.10;1.00;;;;;;5036093;28;20051;-35
2023/04/14 04:53:20;;;;;;;3.13;1.48;;;17.10;1.00;;;;;;5035295;28;20359;-35
2023/04/14 04:55:46;;;;;;;3.60;1.63;;;17.10;1.00;;;;;;5054085;28;20412;-35
2023/04/14 04:58:13;;;;;;;4.70;1.17;;;17.10;1.00;;;;;;5053821;28;20041;-35
2023/04/14 05:00:40;;;;;;;3.58;1.20;;;17.00;1.00;;;;;;5054426;28;20044;-35
2023/04/14 05:03:06;;;;;;;3.70;1.50;;;17.10;1.00;;;;;;5052937;28;20102;-35
2023/04/14 05:05:36;;;;;;;6.75;1.60;;;17.00;1.00;;;;;;5053880;28;20404;-35
2023/04/14 05:08:03;;;;;;;5.38;1.70;;;17.00;1.00;;;;;;5054066;28;20050;-36
2023/04/14 05:10:33;;;;;;;4.97;0.90;;;17.00;1.00;;;;;;5053810;28;20443;-35
2023/04/14 05:13:00;;;;;;;5.68;1.63;;;17.00;1.00;;;;;;5052100;28;20473;-35
2023/04/14 05:15:27;;;;;;;3.63;1.40;;;17.00;1.00;;;;;;5054023;28;20048;-35
2023/04/14 05:17:54;;;;;;;3.25;1.23;;;17.00;1.00;;;;;;5053757;28;20444;-36
2023/04/14 05:20:21;;;;;;;5.97;2.00;;;17.00;1.00;;;;;;5053581;28;20075;-35
2023/04/14 05:22:47;;;;;;;2.92;0.95;;;17.00;1.00;;;;;;5052628;28;20107;-35
2023/04/14 05:25:14;;;;;;;2.88;1.40;;;17.00;1.00;;;;;;5053450;28;20052;-35
2023/04/14 05:27:41;;;;;;;6.57;1.70;;;17.00;1.00;;;;;;5053503;28;20140;-36
2023/04/14 05:30:08;;;;;;;3.97;1.67;;;16.90;1.00;;;;;;5053239;28;20068;-35
2023/04/14 05:32:35;;;;;;;5.88;1.52;;;16.90;1.00;;;;;;5052854;28;20478;-36
2023/04/14 05:35:04;;;;;;;5.55;1.30;;;16.90;1.00;;;;;;5053063;28;20067;-35
2023/04/14 05:37:32;;;;;;;6.43;2.08;;;16.90;1.00;;;;;;5053196;28;20043;-35
2023/04/14 05:40:02;;;;;;;5.43;2.40;;;16.90;1.00;;;;;;5035349;28;20409;-35
2023/04/14 05:42:32;;;;;;;8.18;2.90;;;16.90;1.00;;;;;;5052526;28;20049;-35
2023/04/14 05:44:59;;;;;;;5.93;2.03;;;16.90;1.00;;;;;;5052727;28;20423;-35
2023/04/14 05:47:26;;;;;;;5.38;1.48;;;16.90;1.00;;;;;;5053043;28;20048;-36
2023/04/14 05:49:52;;;;;;;5.53;1.67;;;16.90;1.00;;;;;;5052805;28;20053;-35
2023/04/14 05:52:19;;;;;;;4.80;1.50;;;16.90;1.00;;;;;;5051304;28;20052;-35
2023/04/14 05:54:46;;;;;;;4.45;1.92;;;16.90;1.00;;;;;;5041075;28;20477;-35
2023/04/14 05:57:13;;;;;;;7.35;2.00;;;16.90;1.00;;;;;;5041303;28;20448;-35
2023/04/14 05:59:40;;;;;;;7.35;2.40;;;16.90;1.00;;;;;;5040128;28;20412;-36
2023/04/14 06:02:07;;;;;;;11.32;2.65;;;16.90;1.00;;;;;;5044073;28;20405;-35
2023/04/14 06:04:34;;;;;;;6.03;1.95;;;16.90;1.00;;;;;;5052045;28;20037;-35
2023/04/14 06:07:01;;;;;;;3.83;1.85;;;16.90;1.00;;;;;;5052770;28;20061;-35
2023/04/14 06:09:28;;;;;;;7.35;2.08;;;16.90;1.00;;;;;;5052324;28;20044;-35
2023/04/14 06:11:55;;;;;;;4.55;1.35;;;16.90;1.00;;;;;;5052468;28;20040;-36
2023/04/14 06:14:22;;;;;;;4.45;2.67;;;16.90;1.00;;;;;;5051776;28;20115;-35
2023/04/14 06:16:49;;;;;;;5.68;1.92;;;16.90;1.00;;;;;;5052461;28;20459;-35
2023/04/14 06:19:17;;;;;;;4.28;2.10;;;16.90;1.00;;;;;;5052394;28;20040;-35
2023/04/14 06:21:45;;;;;;;6.20;2.22;;;16.90;1.00;;;;;;5052444;28;20072;-35
2023/04/14 06:24:12;;;;;;;4.38;1.80;;;16.90;1.00;;;;;;5051304;28;20037;-35
2023/04/14 06:26:38;;;;;;;4.50;1.92;;;16.90;1.00;;;;;;5052398;28;20049;-36
2023/04/14 06:29:06;;;;;;;5.97;1.73;;;16.90;1.00;;;;;;5044073;28;20455;-35
2023/04/14 06:31:33;;;;;;;7.63;1.98;;;16.90;1.00;;;;;;5023567;28;20046;-35
2023/04/14 06:34:00;;;;;;;2.95;1.40;;;16.90;1.00;;;;;;5035520;28;20501;-35
2023/04/14 06:36:27;;;;;;;3.90;1.95;;;16.90;1.00;;;;;;5041300;28;20046;-35
2023/04/14 06:38:55;;;;;;;2.78;1.65;;;16.90;1.00;;;;;;5030457;28;20041;-35
2023/04/14 06:41:22;;;;;;;7.80;2.58;;;16.90;1.00;;;;;;5043784;28;20119;-36
2023/04/14 06:43:49;;;;;;;14.02;3.10;;;16.90;1.00;;;;;;5034196;28;20045;-36
2023/04/14 06:46:17;;;;;;;7.43;3.58;;;16.80;1.00;;;;;;5032382;28;20029;-36
2023/04/14 06:48:44;;;;;;;11.05;3.10;;;16.70;1.00;;;;;;5028462;28;20046;-35
2023/04/14 06:51:12;;;;;;;8.38;2.78;;;16.70;1.00;;;;;;5031801;28;20041;-36
2023/04/14 06:53:39;;;;;;;7.00;2.97;;;16.70;1.00;;;;;;5031049;28;20045;-36
2023/04/14 06:56:07;;;;;;;9.65;4.03;;;16.80;1.00;;;;;;5032032;28;20045;-36
2023/04/14 06:58:33;;;;;;;11.75;4.05;;;16.80;1.00;;;;;;5031768;28;20485;-36
2023/04/14 07:01:02;;;;;;;10.32;4.25;;;16.80;1.00;;;;;;5031575;28;20049;-36
2023/04/14 07:03:29;;;;;;;17.88;4.35;;;16.80;1.00;;;;;;5030976;28;20041;-36
2023/04/14 07:06:05;;;;;;;12.85;3.55;;;16.80;1.00;;;;;;5031793;28;20049;-35
2023/04/14 07:08:33;;;;;;;8.32;2.65;;;16.80;1.00;;;;;;5031872;28;20394;-36
2023/04/14 07:11:02;;;;;;;7.55;3.40;;;16.80;1.00;;;;;;5031689;28;20048;-36
2023/04/14 07:13:29;;;;;;;9.88;2.70;;;16.80;1.00;;;;;;5030943;28;20081;-35
2023/04/14 07:15:55;;;;;;;5.53;2.65;;;16.80;1.00;;;;;;5031783;28;20046;-36
2023/04/14 07:18:22;;;;;;;8.95;2.97;;;16.80;1.00;;;;;;5031347;28;20405;-36
2023/04/14 07:20:53;;;;;;;8.50;2.83;;;16.80;1.00;;;;;;5031665;28;20046;-36
2023/04/14 07:23:21;;;;;;;8.68;2.60;;;16.90;1.00;;;;;;5030913;28;20041;-36
2023/04/14 07:25:54;;;;;;;8.07;2.30;;;16.90;1.00;;;;;;5031653;28;20124;-36
2023/04/14 07:28:22;;;;;;;6.18;2.17;;;16.90;1.00;;;;;;5031566;28;20404;-35
2023/04/14 07:30:50;;;;;;;8.18;2.50;;;16.90;1.00;;;;;;5031431;28;20046;-36
2023/04/14 07:33:17;;;;;;;4.13;2.45;;;16.90;1.00;;;;;;5030719;28;20064;-35
2023/04/14 07:35:45;;;;;;;6.40;2.63;;;16.90;1.00;;;;;;5032202;28;20128;-36
2023/04/14 07:38:27;;;;;;;8.60;2.47;;;17.00;1.00;;;;;;5035434;28;20065;-36
2023/04/14 07:40:54;;;;;;;5.97;2.25;;;16.90;1.00;;;;;;5035523;28;20037;-35
2023/04/14 07:43:21;;;;;;;6.75;2.72;;;17.00;1.00;;;;;;5034406;28;20515;-36
2023/04/14 07:45:48;;;;;;;4.28;1.70;;;17.00;1.00;;;;;;5032660;28;20044;-35
2023/04/14 07:48:18;;;;;;;4.38;1.98;;;17.00;1.00;;;;;;5045893;28;20037;-36
2023/04/14 07:50:47;;;;;;;7.22;2.33;;;17.00;1.00;;;;;;5038184;28;20042;-35
2023/04/14 07:53:13;;;;;;;5.75;1.75;;;17.00;1.00;;;;;;5034230;28;20076;-36
2023/04/14 07:55:40;;;;;;;5.65;2.05;;;17.10;1.00;;;;;;5035183;28;20073;-35
2023/04/14 07:58:07;;;;;;;11.40;1.80;;;17.10;1.00;;;;;;5037468;28;20107;-36
2023/04/14 08:00:34;;;;;;;8.02;2.45;;;17.10;1.00;;;;;;5047731;28;20037;-35
2023/04/14 08:03:01;;;;;;;6.03;1.70;;;17.10;1.00;;;;;;5034535;28;20038;-35
2023/04/14 08:05:28;;;;;;;2.90;1.73;;;17.10;1.00;;;;;;5042533;28;20029;-36
2023/04/14 08:07:55;;;;;;;5.75;2.03;;;17.10;1.00;;;;;;5036139;28;20128;-36
2023/04/14 08:10:21;;;;;;;10.27;1.83;;;17.20;1.00;;;;;;5040171;28;20120;-36
2023/04/14 08:12:48;;;;;;;7.25;1.77;;;17.20;1.00;;;;;;5044420;28;20049;-35
2023/04/14 08:15:15;;;;;;;3.80;1.55;;;17.20;1.00;;;;;;5046416;28;20114;-36
2023/04/14 08:17:42;;;;;;;4.22;1.45;;;17.30;1.00;;;;;;5027542;28;20129;-36
2023/04/14 08:20:09;;;;;;;6.32;2.22;;;17.30;1.00;;;;;;5040609;28;20116;-35
2023/04/14 08:22:36;;;;;;;8.00;2.00;;;17.30;1.00;;;;;;5040124;28;20045;-36
2023/04/14 08:25:04;;;;;;;6.30;1.75;;;17.30;1.00;;;;;;5042480;28;20121;-36
2023/04/14 08:27:31;;;;;;;4.40;1.20;;;17.30;1.00;;;;;;5031450;28;20038;-36
2023/04/14 08:30:10;;;;;;;4.97;1.42;;;17.40;1.00;;;;;;5035884;28;20045;-36
2023/04/14 08:32:46;;;;;;;5.28;1.63;;;17.40;1.00;;;;;;5034586;28;20068;-36
2023/04/14 08:35:16;;;;;;;5.72;2.10;;;17.40;1.00;;;;;;5045950;28;20044;-36
2023/04/14 08:38:03;;;;;;;8.50;2.00;;;17.40;1.00;;;;;;5022661;28;20496;-36
2023/04/14 08:40:38;;;;;;;5.50;1.52;;;17.40;1.00;;;;;;5045628;28;20050;-35
2023/04/14 08:43:06;;;;;;;4.35;1.17;;;17.50;1.00;;;;;;5051780;28;20041;-36
2023/04/14 08:45:33;;;;;;;4.60;1.90;;;17.50;1.00;;;;;;5054199;28;20045;-36
2023/04/14 08:48:02;;;;;;;3.55;1.25;;;17.50;1.00;;;;;;5052863;28;20071;-36
2023/04/14 08:50:36;;;;;;;5.43;1.20;;;17.60;1.00;;;;;;5054018;28;20424;-35
2023/04/14 08:53:07;;;;;;;4.43;1.90;;;17.50;1.00;;;;;;5053254;28;20045;-36
2023/04/14 08:55:47;;;;;;;4.78;1.15;;;17.60;1.00;;;;;;5053977;28;20049;-36
2023/04/14 08:58:33;;;;;;;4.03;1.10;;;17.60;1.00;;;;;;5053668;28;20037;-35
2023/04/14 09:01:00;;;;;;;6.53;1.67;;;17.60;1.00;;;;;;5053959;28;20045;-36
2023/04/14 09:03:27;;;;;;;3.50;1.25;;;17.60;1.00;;;;;;5053030;28;20045;-36
2023/04/14 09:05:54;;;;;;;3.75;1.23;;;17.60;1.00;;;;;;5053886;28;20124;-35
2023/04/14 09:08:21;;;;;;;3.45;1.20;;;17.70;1.00;;;;;;5053773;28;20048;-36
2023/04/14 09:10:49;;;;;;;3.88;1.00;;;17.70;1.00;;;;;;5027362;28;20049;-36
2023/04/14 09:13:19;;;;;;;3.92;1.55;;;17.70;1.00;;;;;;5042415;28;20313;-35
2023/04/14 09:15:47;;;;;;;2.40;0.88;;;17.70;1.00;;;;;;5038049;28;20068;-36
2023/04/14 09:18:15;;;;;;;4.90;1.10;;;17.70;1.00;;;;;;5013780;28;20084;-35
2023/04/14 09:20:46;;;;;;;4.88;1.05;;;17.70;1.00;;;;;;5013713;28;20069;-36
2023/04/14 09:23:33;;;;;;;3.08;1.02;;;17.70;1.00;;;;;;5015374;28;20037;-35
2023/04/14 09:26:00;;;;;;;5.60;1.75;;;17.70;1.00;;;;;;5037147;28;20103;-35
2023/04/14 09:28:27;;;;;;;3.60;1.02;;;17.70;1.00;;;;;;5040474;28;20115;-36
2023/04/14 09:30:55;;;;;;;7.47;1.25;;;17.80;1.00;;;;;;5036741;28;20037;-35
2023/04/14 09:33:28;;;;;;;4.47;1.20;;;17.80;1.00;;;;;;5043650;28;20162;-35
2023/04/14 09:36:03;;;;;;;1.98;0.73;;;17.80;1.00;;;;;;5046941;28;20042;-36
2023/04/14 09:39:16;;;;;;;2.08;0.93;;;17.80;1.00;;;;;;5033200;28;20128;-36
2023/04/14 09:41:49;;;;;;;4.45;0.77;;;17.80;1.00;;;;;;5043062;28;20400;-35
2023/04/14 09:44:41;;;;;;;3.85;1.48;;;17.80;1.00;;;;;;5043222;28;20044;-35
2023/04/14 09:47:38;;;;;;;5.70;1.20;;;17.80;1.00;;;;;;5012688;28;20115;-35
2023/04/14 09:50:05;;;;;;;2.95;1.00;;;17.80;1.00;;;;;;5044404;28;20045;-36
2023/04/14 09:52:47;;;;;;;5.05;1.08;;;17.80;1.00;;;;;;5043743;28;20393;-35
2023/04/14 09:55:19;;;;;;;3.65;0.93;;;17.80;1.00;;;;;;5047669;28;20045;-35
2023/04/14 09:58:20;;;;;;;5.70;1.00;;;17.80;1.00;;;;;;5050103;28;20138;-35
2023/04/14 10:04:31;;;;;;;4.85;0.88;;;17.80;1.00;;;;;;5052219;28;20087;-35
2023/04/14 10:07:28;;;;;;;4.75;1.38;;;17.90;1.00;;;;;;5051828;28;20504;-35
2023/04/14 10:10:19;;;;;;;3.20;1.02;;;17.90;1.00;;;;;;5052367;28;20041;-35
2023/04/14 10:12:48;;;;;;;2.15;1.10;;;17.90;1.00;;;;;;5036905;28;20505;-35
2023/04/14 10:15:21;;;;;;;6.00;2.05;;;17.90;1.00;;;;;;5032765;28;20046;-36
2023/04/14 10:17:48;;;;;;;4.57;1.02;;;17.90;1.00;;;;;;5032724;28;20068;-35
2023/04/14 10:20:15;;;;;;;3.10;1.23;;;17.80;1.00;;;;;;5033278;28;20048;-36
2023/04/14 10:22:42;;;;;;;6.63;1.65;;;17.80;1.00;;;;;;5024020;28;20092;-35
2023/04/14 10:25:10;;;;;;;7.63;1.67;;;17.80;1.00;;;;;;5027905;28;20124;-35
2023/04/14 10:27:37;;;;;;;4.72;0.93;;;17.80;1.00;;;;;;5039771;28;20037;-36
2023/04/14 10:30:07;;;;;;;8.82;1.77;;;17.90;1.00;;;;;;5029003;28;20077;-36
2023/04/14 10:32:36;;;;;;;4.25;1.70;;;17.90;1.00;;;;;;5041970;22;20057;-35
2023/04/14 10:35:09;;;;;;;5.20;1.45;;;17.90;1.00;;;;;;5068768;28;20074;-35
2023/04/14 10:37:36;;;;;;;5.35;1.52;;;17.90;1.00;;;;;;5058101;28;20064;-35
2023/04/14 10:40:05;;;;;;;4.95;1.60;;;17.80;1.00;;;;;;5051925;28;20052;-35
2023/04/14 10:42:53;;;;;;;5.13;1.30;;;17.90;1.00;;;;;;5051356;28;20052;-35
2023/04/14 10:45:20;;;;;;;6.07;1.38;;;17.90;1.00;;;;;;5052053;28;20066;-35
2023/04/14 10:47:48;;;;;;;4.88;1.33;;;17.80;1.00;;;;;;5051884;28;20060;-34
2023/04/14 10:50:16;;;;;;;3.65;1.35;;;17.90;1.00;;;;;;5051830;28;20044;-34
2023/04/14 10:52:57;;;;;;;6.72;1.45;;;17.80;1.00;;;;;;5043550;28;20045;-35
2023/04/14 10:55:27;;;;;;;4.00;1.25;;;17.80;1.00;;;;;;5039806;28;20094;-35
2023/04/14 10:58:05;;;;;;;6.65;1.48;;;17.90;1.00;;;;;;5051769;28;20136;-35
2023/04/14 11:00:42;;;;;;;4.10;2.10;;;17.80;1.00;;;;;;5048619;28;20095;-35
2023/04/14 11:03:22;;;;;;;4.78;1.40;;;17.80;1.00;;;;;;5050597;28;20111;-35
2023/04/14 11:06:52;;;;;;;3.08;0.68;;;17.80;1.00;;;;;;5051699;28;20126;-35
2023/04/14 11:09:41;;;;;;;6.50;1.23;;;17.80;1.00;;;;;;5050921;28;20057;-35
2023/04/14 11:12:26;;;;;;;6.00;1.70;;;17.80;1.00;;;;;;5039059;28;20045;-35
2023/04/14 11:15:02;;;;;;;4.70;1.85;;;17.80;1.00;;;;;;5030710;28;20156;-35
2023/04/14 11:17:31;;;;;;;4.30;0.90;;;17.80;1.00;;;;;;5051085;28;20075;-35
2023/04/14 11:19:59;;;;;;;5.53;1.15;;;17.80;1.00;;;;;;5045466;28;20358;-35
2023/04/14 11:22:44;;;;;;;4.55;1.10;;;17.80;1.00;;;;;;5051134;28;20033;-35
2023/04/14 11:25:14;;;;;;;4.07;1.33;;;17.80;1.00;;;;;;5048105;28;20045;-35
2023/04/14 11:27:42;;;;;;;4.97;1.02;;;17.80;1.00;;;;;;5051554;28;20083;-35
2023/04/14 11:30:19;;;;;;;2.78;0.93;;;17.80;1.00;;;;;;5051375;28;20049;-35
2023/04/14 11:32:56;;;;;;;6.07;1.52;;;17.80;1.00;;;;;;5019682;28;20056;-36
2023/04/14 11:35:31;;;;;;;2.63;1.52;;;17.80;1.00;;;;;;5026142;28;20117;-35
2023/04/14 11:38:24;;;;;;;3.03;1.23;;;17.80;1.00;;;;;;5021971;28;20069;-35
2023/04/14 11:41:02;;;;;;;6.18;0.93;;;17.80;1.00;;;;;;5048977;28;20398;-35
2023/04/14 11:43:29;;;;;;;4.40;1.42;;;17.80;1.00;;;;;;5036540;28;20512;-35
2023/04/14 11:45:57;;;;;;;6.03;1.30;;;17.80;1.00;;;;;;5045156;28;20067;-35
2023/04/14 11:48:27;;;;;;;3.58;1.17;;;17.80;1.00;;;;;;5051180;28;20041;-35
2023/04/14 11:50:59;;;;;;;3.53;1.17;;;17.80;1.00;;;;;;5050802;28;20049;-35
2023/04/14 11:53:26;;;;;;;2.53;0.57;;;17.80;1.00;;;;;;5042705;28;20120;-35
2023/04/14 11:55:53;;;;;;;6.28;2.00;;;17.80;1.00;;;;;;5028985;28;20111;-35
2023/04/14 11:58:23;;;;;;;3.30;1.02;;;17.80;1.00;;;;;;5040053;28;20063;-35
2023/04/14 12:00:51;;;;;;;2.95;1.02;;;17.80;1.00;;;;;;5046524;28;20069;-35
2023/04/14 12:03:28;;;;;;;3.75;0.82;;;17.80;1.00;;;;;;5030469;28;20037;-35
2023/04/14 12:05:58;;;;;;;4.32;0.75;;;17.80;1.00;;;;;;5038650;28;20409;-35
2023/04/14 12:08:29;;;;;;;5.47;1.17;;;17.80;1.00;;;;;;5051099;28;20044;-35
2023/04/14 12:10:56;;;;;;;3.22;0.85;;;17.80;1.00;;;;;;5040845;28;20041;-36
2023/04/14 12:13:23;;;;;;;8.02;1.42;;;17.70;1.00;;;;;;5025904;28;20045;-35
2023/04/14 12:15:54;;;;;;;2.80;0.90;;;17.80;1.00;;;;;;5029381;28;20457;-35
2023/04/14 12:18:27;;;;;;;9.35;2.05;;;17.80;1.00;;;;;;5027593;28;20033;-36
2023/04/14 12:21:00;;;;;;;8.05;1.10;;;17.80;1.00;;;;;;5030694;28;20044;-35
2023/04/14 12:23:27;;;;;;;2.67;0.77;;;17.80;1.00;;;;;;5031189;28;20049;-35
2023/04/14 12:25:54;;;;;;;5.05;0.95;;;17.80;1.00;;;;;;5038298;28;20033;-34
2023/04/14 12:28:26;;;;;;;4.93;1.08;;;17.80;1.00;;;;;;5027017;28;20071;-35
2023/04/14 12:30:55;;;;;;;2.88;1.10;;;17.80;1.00;;;;;;5033864;28;20111;-35
2023/04/14 12:33:26;;;;;;;4.35;1.80;;;17.80;1.00;;;;;;5032785;28;20061;-35
2023/04/14 12:36:01;;;;;;;4.63;0.98;;;17.80;1.00;;;;;;5034114;28;20477;-35
2023/04/14 12:38:28;;;;;;;8.45;1.13;;;17.80;1.00;;;;;;5032258;28;20091;-35
2023/04/14 12:40:55;;;;;;;3.30;0.70;;;17.80;1.00;;;;;;5029857;28;20132;-35
2023/04/14 12:43:29;;;;;;;5.35;0.90;;;17.80;1.00;;;;;;5031416;28;20038;-35
2023/04/14 12:45:59;;;;;;;3.63;0.63;;;17.80;1.00;;;;;;5028186;28;20034;-35
2023/04/14 12:48:44;;;;;;;1.02;0.47;;;17.80;1.00;;;;;;5040852;28;20069;-35
2023/04/14 12:51:14;;;;;;;2.00;0.60;;;17.80;1.00;;;;;;5051748;28;20503;-35
2023/04/14 12:53:42;;;;;;;4.82;0.77;;;17.80;1.00;;;;;;5053027;28;20095;-35
2023/04/14 12:56:18;;;;;;;3.63;0.73;;;17.90;1.00;;;;;;5052744;28;20075;-35
2023/04/14 12:58:47;;;;;;;6.40;1.52;;;17.80;1.00;;;;;;5053998;28;20412;-35
2023/04/14 13:01:16;;;;;;;2.05;0.50;;;17.80;1.00;;;;;;5053826;28;20603;-35
2023/04/14 13:03:50;;;;;;;1.73;0.50;;;17.80;1.00;;;;;;5053020;28;20392;-35
2023/04/14 13:06:20;;;;;;;1.50;0.52;;;17.80;1.00;;;;;;5053685;28;20455;-35
2023/04/14 13:08:49;;;;;;;3.05;0.80;;;17.80;1.00;;;;;;5053654;28;20040;-35
2023/04/14 13:11:17;;;;;;;2.58;0.55;;;17.80;1.00;;;;;;5053739;28;20075;-35
2023/04/14 13:13:44;;;;;;;5.53;1.70;;;17.80;1.00;;;;;;5052888;28;20083;-35
2023/04/14 13:16:12;;;;;;;3.70;0.68;;;17.80;1.00;;;;;;5053700;28;20068;-35
2023/04/14 13:18:44;;;;;;;3.35;0.80;;;17.80;1.00;;;;;;5053164;28;20040;-35
2023/04/14 13:21:11;;;;;;;2.55;1.27;;;17.80;1.00;;;;;;5053424;28;20549;-35